sensor_id;sensor_type;location;lat;lon;timestamp;temperature;humidity
17728;DHT22;8984;49.268;12.302;2023-03-01T00:02:19;0.70;99.90
17728;DHT22;8984;49.268;12.302;2023-03-01T00:04:46;0.70;99.90
17728;DHT22;8984;49.268;12.302;2023-03-01T00:07:13;0.80;99.90
17728;DHT22;8984;49.268;12.302;2023-03-01T00:09:40;0.80;99.90
17728;DHT22;8984;49.268;12.302;2023-03-01T00:12:08;0.80;99.90
17728;DHT22;8984;49.268;12.302;2023-03-01T00:14:35;0.80;99.90
17728;DHT22;8984;49.268;12.302;2023-03-01T00:17:02;0.80;99.90
17728;DHT22;8984;49.268;12.302;2023-03-01T00:19:29;0.80;99.90
17728;DHT22;8984;49.268;12.302;2023-03-01T00:21:58;0.80;99.90
17728;DHT22;8984;49.268;12.302;2023-03-01T00:24:24;0.90;99.90
17728;DHT22;8984;49.268;12.302;2023-03-01T00:26:53;1.00;99.90
17728;DHT22;8984;49.268;12.302;2023-03-01T00:29:22;0.90;99.90
17728;DHT22;8984;49.268;12.302;2023-03-01T00:31:49;0.90;99.90
17728;DHT22;8984;49.268;12.302;2023-03-01T00:34:15;0.90;99.90
17728;DHT22;8984;49.268;12.302;2023-03-01T00:36:42;0.90;99.90
17728;DHT22;8984;49.268;12.302;2023-03-01T00:39:11;0.80;99.90
17728;DHT22;8984;49.268;12.302;2023-03-01T00:41:39;0.90;99.90
17728;DHT22;8984;49.268;12.302;2023-03-01T00:44:06;0.90;99.90
17728;DHT22;8984;49.268;12.302;2023-03-01T00:46:34;0.90;99.90
17728;DHT22;8984;49.268;12.302;2023-03-01T00:49:01;0.90;99.90
17728;DHT22;8984;49.268;12.302;2023-03-01T00:51:30;0.90;99.90
17728;DHT22;8984;49.268;12.302;2023-03-01T00:53:59;0.90;99.90
17728;DHT22;8984;49.268;12.302;2023-03-01T00:56:26;0.80;99.90
17728;DHT22;8984;49.268;12.302;2023-03-01T00:58:53;0.90;99.90
17728;DHT22;8984;49.268;12.302;2023-03-01T01:01:23;0.90;99.90
17728;DHT22;8984;49.268;12.302;2023-03-01T01:03:55;0.90;99.90
17728;DHT22;8984;49.268;12.302;2023-03-01T01:06:24;0.90;99.90
17728;DHT22;8984;49.268;12.302;2023-03-01T01:08:52;1.00;99.90
17728;DHT22;8984;49.268;12.302;2023-03-01T01:11:20;1.00;99.90
17728;DHT22;8984;49.268;12.302;2023-03-01T01:13:48;1.00;99.90
17728;DHT22;8984;49.268;12.302;2023-03-01T01:16:16;0.90;99.90
17728;DHT22;8984;49.268;12.302;2023-03-01T01:18:43;0.90;99.90
17728;DHT22;8984;49.268;12.302;2023-03-01T01:21:13;1.00;99.90
17728;DHT22;8984;49.268;12.302;2023-03-01T01:23:41;1.00;99.90
17728;DHT22;8984;49.268;12.302;2023-03-01T01:26:10;1.00;99.90
17728;DHT22;8984;49.268;12.302;2023-03-01T01:28:37;1.10;99.90
17728;DHT22;8984;49.268;12.302;2023-03-01T01:31:04;1.10;99.90
17728;DHT22;8984;49.268;12.302;2023-03-01T01:33:32;1.10;99.90
17728;DHT22;8984;49.268;12.302;2023-03-01T01:35:59;1.10;99.90
17728;DHT22;8984;49.268;12.302;2023-03-01T01:38:27;1.10;99.90
17728;DHT22;8984;49.268;12.302;2023-03-01T01:40:54;1.20;99.90
17728;DHT22;8984;49.268;12.302;2023-03-01T01:43:23;1.20;99.90
17728;DHT22;8984;49.268;12.302;2023-03-01T01:45:50;1.20;99.90
17728;DHT22;8984;49.268;12.302;2023-03-01T01:48:20;1.20;99.90
17728;DHT22;8984;49.268;12.302;2023-03-01T01:50:53;1.20;99.90
17728;DHT22;8984;49.268;12.302;2023-03-01T01:53:22;1.20;99.90
17728;DHT22;8984;49.268;12.302;2023-03-01T01:55:53;1.10;99.90
17728;DHT22;8984;49.268;12.302;2023-03-01T01:58:24;1.10;99.90
17728;DHT22;8984;49.268;12.302;2023-03-01T02:00:53;1.10;99.90
17728;DHT22;8984;49.268;12.302;2023-03-01T02:03:23;1.10;99.90
17728;DHT22;8984;49.268;12.302;2023-03-01T02:05:58;1.00;99.90
17728;DHT22;8984;49.268;12.302;2023-03-01T02:08:30;1.00;99.90
17728;DHT22;8984;49.268;12.302;2023-03-01T02:10:59;0.80;99.90
17728;DHT22;8984;49.268;12.302;2023-03-01T02:13:30;0.60;99.90
17728;DHT22;8984;49.268;12.302;2023-03-01T02:15:57;0.70;99.90
17728;DHT22;8984;49.268;12.302;2023-03-01T02:18:26;0.70;99.90
17728;DHT22;8984;49.268;12.302;2023-03-01T02:21:01;0.70;99.90
17728;DHT22;8984;49.268;12.302;2023-03-01T02:23:31;0.70;99.90
17728;DHT22;8984;49.268;12.302;2023-03-01T02:26:02;0.60;99.90
17728;DHT22;8984;49.268;12.302;2023-03-01T02:28:36;0.70;99.90
17728;DHT22;8984;49.268;12.302;2023-03-01T02:31:05;0.50;99.90
17728;DHT22;8984;49.268;12.302;2023-03-01T02:33:49;0.40;99.90
17728;DHT22;8984;49.268;12.302;2023-03-01T02:36:19;0.40;99.90
17728;DHT22;8984;49.268;12.302;2023-03-01T02:38:47;0.40;99.90
17728;DHT22;8984;49.268;12.302;2023-03-01T02:41:16;0.40;99.90
17728;DHT22;8984;49.268;12.302;2023-03-01T02:43:45;0.40;99.90
17728;DHT22;8984;49.268;12.302;2023-03-01T02:46:15;0.30;99.90
17728;DHT22;8984;49.268;12.302;2023-03-01T02:48:44;0.30;99.90
17728;DHT22;8984;49.268;12.302;2023-03-01T02:51:22;0.30;99.90
17728;DHT22;8984;49.268;12.302;2023-03-01T02:53:59;0.30;99.90
17728;DHT22;8984;49.268;12.302;2023-03-01T02:56:29;0.30;99.90
17728;DHT22;8984;49.268;12.302;2023-03-01T02:58:57;0.30;99.90
17728;DHT22;8984;49.268;12.302;2023-03-01T03:01:26;0.30;99.90
17728;DHT22;8984;49.268;12.302;2023-03-01T03:04:02;0.30;99.90
17728;DHT22;8984;49.268;12.302;2023-03-01T03:06:29;0.30;99.90
17728;DHT22;8984;49.268;12.302;2023-03-01T03:08:56;0.20;99.90
17728;DHT22;8984;49.268;12.302;2023-03-01T03:11:23;0.10;99.90
17728;DHT22;8984;49.268;12.302;2023-03-01T03:13:49;0.10;99.90
17728;DHT22;8984;49.268;12.302;2023-03-01T03:16:19;0.00;99.90
17728;DHT22;8984;49.268;12.302;2023-03-01T03:18:46;-0.20;99.90
17728;DHT22;8984;49.268;12.302;2023-03-01T03:21:14;-0.10;99.90
17728;DHT22;8984;49.268;12.302;2023-03-01T03:23:41;-0.10;99.90
17728;DHT22;8984;49.268;12.302;2023-03-01T03:26:08;-0.10;99.90
17728;DHT22;8984;49.268;12.302;2023-03-01T03:28:40;0.00;99.90
17728;DHT22;8984;49.268;12.302;2023-03-01T03:31:07;-0.10;99.90
17728;DHT22;8984;49.268;12.302;2023-03-01T03:33:35;0.00;99.90
17728;DHT22;8984;49.268;12.302;2023-03-01T03:36:03;0.00;99.90
17728;DHT22;8984;49.268;12.302;2023-03-01T03:38:30;0.00;99.90
17728;DHT22;8984;49.268;12.302;2023-03-01T03:41:02;-0.10;99.90
17728;DHT22;8984;49.268;12.302;2023-03-01T03:43:31;-0.10;99.90
17728;DHT22;8984;49.268;12.302;2023-03-01T03:45:58;-0.20;99.90
17728;DHT22;8984;49.268;12.302;2023-03-01T03:48:26;-0.20;99.90
17728;DHT22;8984;49.268;12.302;2023-03-01T03:50:55;-0.30;99.90
17728;DHT22;8984;49.268;12.302;2023-03-01T03:53:24;-0.40;99.90
17728;DHT22;8984;49.268;12.302;2023-03-01T03:55:51;-0.40;99.90
17728;DHT22;8984;49.268;12.302;2023-03-01T03:58:20;-0.40;99.90
17728;DHT22;8984;49.268;12.302;2023-03-01T04:00:49;-0.30;99.90
17728;DHT22;8984;49.268;12.302;2023-03-01T04:03:16;-0.30;99.90
17728;DHT22;8984;49.268;12.302;2023-03-01T04:05:44;-0.30;99.90
17728;DHT22;8984;49.268;12.302;2023-03-01T04:08:12;-0.30;99.90
17728;DHT22;8984;49.268;12.302;2023-03-01T04:10:42;-0.30;99.90
17728;DHT22;8984;49.268;12.302;2023-03-01T04:13:12;-0.30;99.90
17728;DHT22;8984;49.268;12.302;2023-03-01T04:15:40;-0.30;99.90
17728;DHT22;8984;49.268;12.302;2023-03-01T04:18:08;-0.40;99.90
17728;DHT22;8984;49.268;12.302;2023-03-01T04:20:36;-0.40;99.90
17728;DHT22;8984;49.268;12.302;2023-03-01T04:23:06;-0.40;99.90
17728;DHT22;8984;49.268;12.302;2023-03-01T04:25:41;-0.50;99.90
17728;DHT22;8984;49.268;12.302;2023-03-01T04:28:09;-0.50;99.90
17728;DHT22;8984;49.268;12.302;2023-03-01T04:30:36;-0.50;99.90
17728;DHT22;8984;49.268;12.302;2023-03-01T04:33:04;-0.50;99.90
17728;DHT22;8984;49.268;12.302;2023-03-01T04:35:32;-0.50;99.90
17728;DHT22;8984;49.268;12.302;2023-03-01T04:37:59;-0.50;99.90
17728;DHT22;8984;49.268;12.302;2023-03-01T04:40:26;-0.60;99.90
17728;DHT22;8984;49.268;12.302;2023-03-01T04:42:55;-0.60;99.90
17728;DHT22;8984;49.268;12.302;2023-03-01T04:45:22;-0.60;99.90
17728;DHT22;8984;49.268;12.302;2023-03-01T04:47:49;-0.60;99.90
17728;DHT22;8984;49.268;12.302;2023-03-01T04:50:18;-0.60;99.90
17728;DHT22;8984;49.268;12.302;2023-03-01T04:52:47;-0.60;99.90
17728;DHT22;8984;49.268;12.302;2023-03-01T04:55:14;-0.70;99.90
17728;DHT22;8984;49.268;12.302;2023-03-01T04:57:40;-0.70;99.90
17728;DHT22;8984;49.268;12.302;2023-03-01T05:00:11;-0.70;99.90
17728;DHT22;8984;49.268;12.302;2023-03-01T05:02:47;-0.70;99.90
17728;DHT22;8984;49.268;12.302;2023-03-01T05:05:19;-0.70;99.90
17728;DHT22;8984;49.268;12.302;2023-03-01T05:07:46;-0.80;99.90
17728;DHT22;8984;49.268;12.302;2023-03-01T05:10:12;-0.80;99.90
17728;DHT22;8984;49.268;12.302;2023-03-01T05:12:39;-0.80;99.90
17728;DHT22;8984;49.268;12.302;2023-03-01T05:15:09;-0.80;99.90
17728;DHT22;8984;49.268;12.302;2023-03-01T05:17:36;-0.90;99.90
17728;DHT22;8984;49.268;12.302;2023-03-01T05:20:03;-0.90;99.90
17728;DHT22;8984;49.268;12.302;2023-03-01T05:22:33;-0.90;99.90
17728;DHT22;8984;49.268;12.302;2023-03-01T05:24:59;-1.00;99.90
17728;DHT22;8984;49.268;12.302;2023-03-01T05:27:26;-1.00;99.90
17728;DHT22;8984;49.268;12.302;2023-03-01T05:29:55;-1.00;99.90
17728;DHT22;8984;49.268;12.302;2023-03-01T05:32:23;-1.00;99.90
17728;DHT22;8984;49.268;12.302;2023-03-01T05:34:49;-1.00;99.90
17728;DHT22;8984;49.268;12.302;2023-03-01T05:37:17;-1.00;99.90
17728;DHT22;8984;49.268;12.302;2023-03-01T05:39:45;-1.10;99.90
17728;DHT22;8984;49.268;12.302;2023-03-01T05:42:12;-1.10;99.90
17728;DHT22;8984;49.268;12.302;2023-03-01T05:44:38;-1.10;99.90
17728;DHT22;8984;49.268;12.302;2023-03-01T05:47:05;-1.10;99.90
17728;DHT22;8984;49.268;12.302;2023-03-01T05:49:34;-1.10;99.90
17728;DHT22;8984;49.268;12.302;2023-03-01T05:52:00;-1.10;99.90
17728;DHT22;8984;49.268;12.302;2023-03-01T05:54:27;-1.00;99.90
17728;DHT22;8984;49.268;12.302;2023-03-01T05:56:54;-1.00;99.90
17728;DHT22;8984;49.268;12.302;2023-03-01T05:59:21;-1.00;99.90
17728;DHT22;8984;49.268;12.302;2023-03-01T06:01:48;-1.00;99.90
17728;DHT22;8984;49.268;12.302;2023-03-01T06:04:15;-1.00;99.90
17728;DHT22;8984;49.268;12.302;2023-03-01T06:06:43;-1.10;99.90
17728;DHT22;8984;49.268;12.302;2023-03-01T06:09:10;-1.00;99.90
17728;DHT22;8984;49.268;12.302;2023-03-01T06:11:37;-1.00;99.90
17728;DHT22;8984;49.268;12.302;2023-03-01T06:14:05;-1.00;99.90
17728;DHT22;8984;49.268;12.302;2023-03-01T06:16:33;-0.90;99.90
17728;DHT22;8984;49.268;12.302;2023-03-01T06:19:00;-0.90;99.90
17728;DHT22;8984;49.268;12.302;2023-03-01T06:21:26;-0.90;99.90
17728;DHT22;8984;49.268;12.302;2023-03-01T06:23:54;-0.80;99.90
17728;DHT22;8984;49.268;12.302;2023-03-01T06:26:21;-0.60;99.90
17728;DHT22;8984;49.268;12.302;2023-03-01T06:28:48;-0.30;99.90
17728;DHT22;8984;49.268;12.302;2023-03-01T06:31:16;0.00;99.90
17728;DHT22;8984;49.268;12.302;2023-03-01T06:33:43;0.10;99.90
17728;DHT22;8984;49.268;12.302;2023-03-01T06:36:10;0.30;99.90
17728;DHT22;8984;49.268;12.302;2023-03-01T06:38:37;0.50;99.90
17728;DHT22;8984;49.268;12.302;2023-03-01T06:41:07;0.80;99.90
17728;DHT22;8984;49.268;12.302;2023-03-01T06:43:34;1.00;99.90
17728;DHT22;8984;49.268;12.302;2023-03-01T06:46:04;1.10;99.90
17728;DHT22;8984;49.268;12.302;2023-03-01T06:48:30;1.20;99.90
17728;DHT22;8984;49.268;12.302;2023-03-01T06:50:58;1.20;99.90
17728;DHT22;8984;49.268;12.302;2023-03-01T06:53:26;1.30;99.90
17728;DHT22;8984;49.268;12.302;2023-03-01T06:55:54;1.50;99.90
17728;DHT22;8984;49.268;12.302;2023-03-01T06:58:22;1.60;99.90
17728;DHT22;8984;49.268;12.302;2023-03-01T07:00:49;1.60;99.90
17728;DHT22;8984;49.268;12.302;2023-03-01T07:03:16;1.70;99.90
17728;DHT22;8984;49.268;12.302;2023-03-01T07:05:42;1.80;99.90
17728;DHT22;8984;49.268;12.302;2023-03-01T07:08:09;1.90;99.90
17728;DHT22;8984;49.268;12.302;2023-03-01T07:10:36;2.00;99.90
17728;DHT22;8984;49.268;12.302;2023-03-01T07:13:03;2.20;99.90
17728;DHT22;8984;49.268;12.302;2023-03-01T07:15:33;2.30;99.90
17728;DHT22;8984;49.268;12.302;2023-03-01T07:18:00;2.40;99.90
17728;DHT22;8984;49.268;12.302;2023-03-01T07:20:27;2.50;99.90
17728;DHT22;8984;49.268;12.302;2023-03-01T07:22:54;2.60;99.90
17728;DHT22;8984;49.268;12.302;2023-03-01T07:25:21;2.70;99.90
17728;DHT22;8984;49.268;12.302;2023-03-01T07:27:49;2.80;99.90
17728;DHT22;8984;49.268;12.302;2023-03-01T07:30:17;2.80;99.90
17728;DHT22;8984;49.268;12.302;2023-03-01T07:32:45;2.80;99.90
17728;DHT22;8984;49.268;12.302;2023-03-01T07:35:12;2.80;99.90
17728;DHT22;8984;49.268;12.302;2023-03-01T07:37:40;2.80;99.90
17728;DHT22;8984;49.268;12.302;2023-03-01T07:40:08;2.70;99.90
17728;DHT22;8984;49.268;12.302;2023-03-01T07:42:35;2.80;99.90
17728;DHT22;8984;49.268;12.302;2023-03-01T07:45:02;2.90;99.90
17728;DHT22;8984;49.268;12.302;2023-03-01T07:47:29;3.00;99.90
17728;DHT22;8984;49.268;12.302;2023-03-01T07:49:57;3.10;99.90
17728;DHT22;8984;49.268;12.302;2023-03-01T07:52:24;3.30;99.90
17728;DHT22;8984;49.268;12.302;2023-03-01T07:54:50;3.30;99.90
17728;DHT22;8984;49.268;12.302;2023-03-01T07:57:17;3.50;99.90
17728;DHT22;8984;49.268;12.302;2023-03-01T07:59:44;3.60;99.90
17728;DHT22;8984;49.268;12.302;2023-03-01T08:02:11;3.70;99.90
17728;DHT22;8984;49.268;12.302;2023-03-01T08:04:37;3.80;99.90
17728;DHT22;8984;49.268;12.302;2023-03-01T08:07:06;4.10;99.90
17728;DHT22;8984;49.268;12.302;2023-03-01T08:09:34;4.10;99.90
17728;DHT22;8984;49.268;12.302;2023-03-01T08:12:02;4.20;99.90
17728;DHT22;8984;49.268;12.302;2023-03-01T08:14:30;4.30;99.90
17728;DHT22;8984;49.268;12.302;2023-03-01T08:16:57;4.40;99.90
17728;DHT22;8984;49.268;12.302;2023-03-01T08:19:23;4.40;99.90
17728;DHT22;8984;49.268;12.302;2023-03-01T08:21:50;4.50;99.90
17728;DHT22;8984;49.268;12.302;2023-03-01T08:24:18;4.50;99.90
17728;DHT22;8984;49.268;12.302;2023-03-01T08:26:45;4.60;99.90
17728;DHT22;8984;49.268;12.302;2023-03-01T08:29:12;4.70;99.90
17728;DHT22;8984;49.268;12.302;2023-03-01T08:31:39;4.80;99.90
17728;DHT22;8984;49.268;12.302;2023-03-01T08:34:08;4.80;99.90
17728;DHT22;8984;49.268;12.302;2023-03-01T08:36:37;5.00;99.90
17728;DHT22;8984;49.268;12.302;2023-03-01T08:39:06;5.20;99.90
17728;DHT22;8984;49.268;12.302;2023-03-01T08:41:35;5.10;99.90
17728;DHT22;8984;49.268;12.302;2023-03-01T08:44:02;5.30;99.90
17728;DHT22;8984;49.268;12.302;2023-03-01T08:46:33;5.30;99.90
17728;DHT22;8984;49.268;12.302;2023-03-01T08:49:03;5.50;99.90
17728;DHT22;8984;49.268;12.302;2023-03-01T08:51:30;5.20;99.90
17728;DHT22;8984;49.268;12.302;2023-03-01T08:54:01;5.30;99.90
17728;DHT22;8984;49.268;12.302;2023-03-01T08:56:28;5.50;99.90
17728;DHT22;8984;49.268;12.302;2023-03-01T08:58:57;5.50;99.90
17728;DHT22;8984;49.268;12.302;2023-03-01T09:01:23;5.70;99.90
17728;DHT22;8984;49.268;12.302;2023-03-01T09:03:50;5.70;99.90
17728;DHT22;8984;49.268;12.302;2023-03-01T09:06:17;5.70;99.90
17728;DHT22;8984;49.268;12.302;2023-03-01T09:08:45;5.90;99.90
17728;DHT22;8984;49.268;12.302;2023-03-01T09:11:14;6.00;99.90
17728;DHT22;8984;49.268;12.302;2023-03-01T09:13:42;6.10;99.90
17728;DHT22;8984;49.268;12.302;2023-03-01T09:16:11;5.80;99.90
17728;DHT22;8984;49.268;12.302;2023-03-01T09:18:38;6.20;99.90
17728;DHT22;8984;49.268;12.302;2023-03-01T09:21:07;6.30;99.90
17728;DHT22;8984;49.268;12.302;2023-03-01T09:23:35;6.40;99.90
17728;DHT22;8984;49.268;12.302;2023-03-01T09:26:04;6.30;99.90
17728;DHT22;8984;49.268;12.302;2023-03-01T09:28:31;6.10;99.90
17728;DHT22;8984;49.268;12.302;2023-03-01T09:30:59;6.30;99.90
17728;DHT22;8984;49.268;12.302;2023-03-01T09:33:27;6.50;99.90
17728;DHT22;8984;49.268;12.302;2023-03-01T09:35:58;6.60;99.90
17728;DHT22;8984;49.268;12.302;2023-03-01T09:38:25;6.70;99.90
17728;DHT22;8984;49.268;12.302;2023-03-01T09:40:53;6.60;99.90
17728;DHT22;8984;49.268;12.302;2023-03-01T09:43:25;6.60;99.90
17728;DHT22;8984;49.268;12.302;2023-03-01T09:45:55;6.80;99.90
17728;DHT22;8984;49.268;12.302;2023-03-01T09:48:29;7.10;99.90
17728;DHT22;8984;49.268;12.302;2023-03-01T09:50:58;7.20;99.90
17728;DHT22;8984;49.268;12.302;2023-03-01T09:53:32;7.40;99.90
17728;DHT22;8984;49.268;12.302;2023-03-01T09:56:04;7.40;99.90
17728;DHT22;8984;49.268;12.302;2023-03-01T09:58:39;7.40;99.90
17728;DHT22;8984;49.268;12.302;2023-03-01T10:01:32;7.50;99.90
17728;DHT22;8984;49.268;12.302;2023-03-01T10:07:10;7.60;99.90
17728;DHT22;8984;49.268;12.302;2023-03-01T10:09:42;7.70;99.90
17728;DHT22;8984;49.268;12.302;2023-03-01T10:12:12;7.70;99.90
17728;DHT22;8984;49.268;12.302;2023-03-01T10:14:45;7.50;99.90
17728;DHT22;8984;49.268;12.302;2023-03-01T10:17:24;7.80;99.90
17728;DHT22;8984;49.268;12.302;2023-03-01T10:19:53;8.10;99.90
17728;DHT22;8984;49.268;12.302;2023-03-01T10:22:28;8.00;99.90
17728;DHT22;8984;49.268;12.302;2023-03-01T10:24:58;8.00;99.90
17728;DHT22;8984;49.268;12.302;2023-03-01T10:27:32;7.80;99.90
17728;DHT22;8984;49.268;12.302;2023-03-01T10:30:09;8.10;99.90
17728;DHT22;8984;49.268;12.302;2023-03-01T10:32:39;8.00;99.90
17728;DHT22;8984;49.268;12.302;2023-03-01T10:35:18;7.90;99.90
17728;DHT22;8984;49.268;12.302;2023-03-01T10:38:02;8.20;99.90
17728;DHT22;8984;49.268;12.302;2023-03-01T10:40:29;8.30;99.90
17728;DHT22;8984;49.268;12.302;2023-03-01T10:42:58;8.30;99.90
17728;DHT22;8984;49.268;12.302;2023-03-01T10:45:32;8.40;99.90
17728;DHT22;8984;49.268;12.302;2023-03-01T10:48:12;8.30;99.90
17728;DHT22;8984;49.268;12.302;2023-03-01T10:50:42;8.30;99.90
17728;DHT22;8984;49.268;12.302;2023-03-01T10:53:26;8.30;99.90
17728;DHT22;8984;49.268;12.302;2023-03-01T10:56:00;8.60;99.90
17728;DHT22;8984;49.268;12.302;2023-03-01T10:58:28;8.60;99.90
17728;DHT22;8984;49.268;12.302;2023-03-01T11:00:56;8.40;99.90
17728;DHT22;8984;49.268;12.302;2023-03-01T11:03:25;8.60;99.90
17728;DHT22;8984;49.268;12.302;2023-03-01T11:05:59;8.60;99.90
17728;DHT22;8984;49.268;12.302;2023-03-01T11:08:39;8.60;99.90
17728;DHT22;8984;49.268;12.302;2023-03-01T11:11:25;8.00;99.90
17728;DHT22;8984;49.268;12.302;2023-03-01T11:13:58;8.40;99.90
17728;DHT22;8984;49.268;12.302;2023-03-01T11:16:28;8.40;99.90
17728;DHT22;8984;49.268;12.302;2023-03-01T11:18:57;8.50;99.90
17728;DHT22;8984;49.268;12.302;2023-03-01T11:21:28;8.40;99.90
17728;DHT22;8984;49.268;12.302;2023-03-01T11:23:58;8.30;99.90
17728;DHT22;8984;49.268;12.302;2023-03-01T11:26:27;8.40;99.90
17728;DHT22;8984;49.268;12.302;2023-03-01T11:28:58;8.50;99.90
17728;DHT22;8984;49.268;12.302;2023-03-01T11:31:27;8.50;99.90
17728;DHT22;8984;49.268;12.302;2023-03-01T11:33:59;8.70;99.90
17728;DHT22;8984;49.268;12.302;2023-03-01T11:36:35;8.20;99.90
17728;DHT22;8984;49.268;12.302;2023-03-01T11:39:10;8.50;99.90
17728;DHT22;8984;49.268;12.302;2023-03-01T11:41:40;8.70;99.90
17728;DHT22;8984;49.268;12.302;2023-03-01T11:44:16;8.60;99.90
17728;DHT22;8984;49.268;12.302;2023-03-01T11:47:04;8.60;99.90
17728;DHT22;8984;49.268;12.302;2023-03-01T11:49:59;8.20;99.90
17728;DHT22;8984;49.268;12.302;2023-03-01T11:52:39;8.60;99.90
17728;DHT22;8984;49.268;12.302;2023-03-01T11:55:29;8.70;99.90
17728;DHT22;8984;49.268;12.302;2023-03-01T11:58:08;8.50;99.90
17728;DHT22;8984;49.268;12.302;2023-03-01T12:00:47;8.80;99.90
17728;DHT22;8984;49.268;12.302;2023-03-01T12:03:28;8.80;99.90
17728;DHT22;8984;49.268;12.302;2023-03-01T12:06:16;8.50;99.90
17728;DHT22;8984;49.268;12.302;2023-03-01T12:09:02;8.80;99.90
17728;DHT22;8984;49.268;12.302;2023-03-01T12:11:42;9.00;99.90
17728;DHT22;8984;49.268;12.302;2023-03-01T12:14:36;8.90;99.90
17728;DHT22;8984;49.268;12.302;2023-03-01T12:20:17;8.50;99.90
17728;DHT22;8984;49.268;12.302;2023-03-01T12:22:59;8.70;99.90
17728;DHT22;8984;49.268;12.302;2023-03-01T12:25:35;8.70;99.90
17728;DHT22;8984;49.268;12.302;2023-03-01T12:31:45;8.80;99.90
17728;DHT22;8984;49.268;12.302;2023-03-01T12:34:29;8.70;99.90
17728;DHT22;8984;49.268;12.302;2023-03-01T12:37:11;8.40;99.90
17728;DHT22;8984;49.268;12.302;2023-03-01T12:39:51;8.40;99.90
17728;DHT22;8984;49.268;12.302;2023-03-01T12:42:30;8.30;99.90
17728;DHT22;8984;49.268;12.302;2023-03-01T12:45:24;8.20;99.90
17728;DHT22;8984;49.268;12.302;2023-03-01T12:48:02;8.20;99.90
17728;DHT22;8984;49.268;12.302;2023-03-01T12:50:38;7.90;99.90
17728;DHT22;8984;49.268;12.302;2023-03-01T12:53:20;8.00;99.90
17728;DHT22;8984;49.268;12.302;2023-03-01T12:55:50;8.00;99.90
17728;DHT22;8984;49.268;12.302;2023-03-01T12:58:26;7.90;99.90
17728;DHT22;8984;49.268;12.302;2023-03-01T13:01:13;8.00;99.90
17728;DHT22;8984;49.268;12.302;2023-03-01T13:03:56;8.00;99.90
17728;DHT22;8984;49.268;12.302;2023-03-01T13:06:32;7.90;99.90
17728;DHT22;8984;49.268;12.302;2023-03-01T13:09:07;7.80;99.90
17728;DHT22;8984;49.268;12.302;2023-03-01T13:11:36;8.00;99.90
17728;DHT22;8984;49.268;12.302;2023-03-01T13:14:39;8.00;99.90
17728;DHT22;8984;49.268;12.302;2023-03-01T13:17:40;8.00;99.90
17728;DHT22;8984;49.268;12.302;2023-03-01T13:20:14;8.10;99.90
17728;DHT22;8984;49.268;12.302;2023-03-01T13:22:41;8.20;99.90
17728;DHT22;8984;49.268;12.302;2023-03-01T13:25:14;8.20;99.90
17728;DHT22;8984;49.268;12.302;2023-03-01T13:27:41;8.30;99.90
17728;DHT22;8984;49.268;12.302;2023-03-01T13:35:54;8.00;99.90
17728;DHT22;8984;49.268;12.302;2023-03-01T13:38:41;8.40;99.90
17728;DHT22;8984;49.268;12.302;2023-03-01T13:41:12;8.50;99.90
17728;DHT22;8984;49.268;12.302;2023-03-01T13:43:41;8.40;99.90
17728;DHT22;8984;49.268;12.302;2023-03-01T13:46:10;8.40;99.90
17728;DHT22;8984;49.268;12.302;2023-03-01T13:48:39;8.40;99.90
17728;DHT22;8984;49.268;12.302;2023-03-01T13:51:10;8.60;99.90
17728;DHT22;8984;49.268;12.302;2023-03-01T13:53:41;8.40;99.90
17728;DHT22;8984;49.268;12.302;2023-03-01T13:56:12;8.50;99.90
17728;DHT22;8984;49.268;12.302;2023-03-01T13:58:58;8.50;99.90
17728;DHT22;8984;49.268;12.302;2023-03-01T14:01:28;8.60;99.90
17728;DHT22;8984;49.268;12.302;2023-03-01T14:03:56;8.70;99.90
17728;DHT22;8984;49.268;12.302;2023-03-01T14:06:25;8.60;99.90
17728;DHT22;8984;49.268;12.302;2023-03-01T14:09:03;8.80;99.90
17728;DHT22;8984;49.268;12.302;2023-03-01T14:11:50;8.60;99.90
17728;DHT22;8984;49.268;12.302;2023-03-01T14:17:42;8.70;99.90
17728;DHT22;8984;49.268;12.302;2023-03-01T14:20:18;8.60;99.90
17728;DHT22;8984;49.268;12.302;2023-03-01T14:22:49;8.70;99.90
17728;DHT22;8984;49.268;12.302;2023-03-01T14:25:24;9.00;99.90
17728;DHT22;8984;49.268;12.302;2023-03-01T14:27:55;8.70;99.90
17728;DHT22;8984;49.268;12.302;2023-03-01T14:30:24;8.80;99.90
17728;DHT22;8984;49.268;12.302;2023-03-01T14:32:52;8.60;99.90
17728;DHT22;8984;49.268;12.302;2023-03-01T14:35:21;8.50;99.90
17728;DHT22;8984;49.268;12.302;2023-03-01T14:37:49;8.40;99.90
17728;DHT22;8984;49.268;12.302;2023-03-01T14:40:23;8.30;99.90
17728;DHT22;8984;49.268;12.302;2023-03-01T14:42:51;8.30;99.90
17728;DHT22;8984;49.268;12.302;2023-03-01T14:45:18;8.30;99.90
17728;DHT22;8984;49.268;12.302;2023-03-01T14:47:46;8.30;99.90
17728;DHT22;8984;49.268;12.302;2023-03-01T14:50:21;8.20;99.90
17728;DHT22;8984;49.268;12.302;2023-03-01T14:52:52;8.20;99.90
17728;DHT22;8984;49.268;12.302;2023-03-01T14:55:21;8.40;99.90
17728;DHT22;8984;49.268;12.302;2023-03-01T14:57:51;8.40;99.90
17728;DHT22;8984;49.268;12.302;2023-03-01T15:00:21;8.30;99.90
17728;DHT22;8984;49.268;12.302;2023-03-01T15:02:50;8.30;99.90
17728;DHT22;8984;49.268;12.302;2023-03-01T15:05:20;8.30;99.90
17728;DHT22;8984;49.268;12.302;2023-03-01T15:07:51;8.40;99.90
17728;DHT22;8984;49.268;12.302;2023-03-01T15:10:21;8.20;99.90
17728;DHT22;8984;49.268;12.302;2023-03-01T15:12:48;8.40;99.90
17728;DHT22;8984;49.268;12.302;2023-03-01T15:15:31;8.20;99.90
17728;DHT22;8984;49.268;12.302;2023-03-01T15:17:59;8.20;99.90
17728;DHT22;8984;49.268;12.302;2023-03-01T15:20:28;8.00;99.90
17728;DHT22;8984;49.268;12.302;2023-03-01T15:22:59;8.00;99.90
17728;DHT22;8984;49.268;12.302;2023-03-01T15:25:28;8.20;99.90
17728;DHT22;8984;49.268;12.302;2023-03-01T15:27:57;8.30;99.90
17728;DHT22;8984;49.268;12.302;2023-03-01T15:30:27;8.10;99.90
17728;DHT22;8984;49.268;12.302;2023-03-01T15:33:20;8.00;99.90
17728;DHT22;8984;49.268;12.302;2023-03-01T15:35:55;8.10;99.90
17728;DHT22;8984;49.268;12.302;2023-03-01T15:38:32;7.90;99.90
17728;DHT22;8984;49.268;12.302;2023-03-01T15:41:00;7.90;99.90
17728;DHT22;8984;49.268;12.302;2023-03-01T15:43:42;8.00;99.90
17728;DHT22;8984;49.268;12.302;2023-03-01T15:46:24;8.00;99.90
17728;DHT22;8984;49.268;12.302;2023-03-01T15:48:54;8.10;99.90
17728;DHT22;8984;49.268;12.302;2023-03-01T15:51:33;8.00;99.90
17728;DHT22;8984;49.268;12.302;2023-03-01T15:54:05;8.00;99.90
17728;DHT22;8984;49.268;12.302;2023-03-01T15:56:33;7.90;99.90
17728;DHT22;8984;49.268;12.302;2023-03-01T15:59:01;7.90;99.90
17728;DHT22;8984;49.268;12.302;2023-03-01T16:01:28;7.80;99.90
17728;DHT22;8984;49.268;12.302;2023-03-01T16:03:56;7.70;99.90
17728;DHT22;8984;49.268;12.302;2023-03-01T16:06:24;7.60;99.90
17728;DHT22;8984;49.268;12.302;2023-03-01T16:08:50;7.60;99.90
17728;DHT22;8984;49.268;12.302;2023-03-01T16:11:19;7.60;99.90
17728;DHT22;8984;49.268;12.302;2023-03-01T16:13:46;7.60;99.90
17728;DHT22;8984;49.268;12.302;2023-03-01T16:16:14;7.40;99.90
17728;DHT22;8984;49.268;12.302;2023-03-01T16:18:43;7.40;99.90
17728;DHT22;8984;49.268;12.302;2023-03-01T16:21:20;7.50;99.90
17728;DHT22;8984;49.268;12.302;2023-03-01T16:23:47;7.40;99.90